Time;durP1;ratioP1;P1;durP2;ratioP2;P2;SDS_P1;SDS_P2;PMS_P1;PMS_P2;Temp;Humidity;BMP_temperature;BMP_pressure;BME280_temperature;BME280_humidity;BME280_pressure;Samples;Min_cycle;Max_cycle;Signal;HPM_P1;HPM_P2
2023/07/22 00:19:23;;;;;;;11.17;10.17;;;17.10;99.90;;;;;;4640661;29;21329;-84
2023/07/22 00:39:40;;;;;;;13.23;12.13;;;16.80;99.90;;;;;;4450491;31;20486;-85
2023/07/22 01:20:09;;;;;;;14.83;13.33;;;16.40;99.90;;;;;;4575551;30;20790;-85
2023/07/22 01:45:45;;;;;;;16.30;14.80;;;16.60;99.90;;;;;;4685802;29;20232;-84
2023/07/22 02:16:02;;;;;;;17.30;15.77;;;16.30;99.90;;;;;;4629858;29;20603;-85
2023/07/22 02:46:47;;;;;;;18.83;17.10;;;16.20;99.90;;;;;;4654763;30;20255;-83
2023/07/22 03:12:15;;;;;;;19.00;17.07;;;16.40;99.90;;;;;;4662262;29;20261;-83
2023/07/22 04:07:57;;;;;;;16.53;14.97;;;17.90;99.90;;;;;;4735624;29;20196;-82
2023/07/22 04:33:10;;;;;;;13.17;12.07;;;18.50;99.90;;;;;;4642209;29;20249;-86
2023/07/22 05:03:40;;;;;;;12.73;11.43;;;18.70;99.90;;;;;;4776301;29;20232;-85
2023/07/22 05:34:06;;;;;;;11.40;10.27;;;18.50;99.90;;;;;;4763298;29;20736;-85
2023/07/22 05:59:32;;;;;;;11.27;10.20;;;18.80;99.90;;;;;;4645371;29;20205;-84
2023/07/22 06:40:09;;;;;;;7.43;6.80;;;20.20;94.90;;;;;;4726099;29;21122;-87
2023/07/22 07:20:36;;;;;;;5.53;4.50;;;21.40;89.70;;;;;;4732411;29;20735;-86
2023/07/22 07:56:07;;;;;;;5.03;4.45;;;21.70;86.70;;;;;;4809058;29;20869;-87
2023/07/22 08:21:32;;;;;;;4.93;3.28;;;21.90;81.00;;;;;;4667231;29;20211;-84
2023/07/22 08:46:49;;;;;;;2.85;2.65;;;22.30;78.90;;;;;;4614105;30;20215;-85
2023/07/22 09:17:21;;;;;;;2.72;2.53;;;23.70;65.60;;;;;;4499852;30;20429;-83
2023/07/22 09:37:40;;;;;;;3.65;2.63;;;24.40;63.10;;;;;;4657512;29;20323;-84
2023/07/22 10:02:20;;;;;;;3.42;2.55;;;24.20;60.40;;;;;;4625673;29;20379;-86
2023/07/22 10:38:33;;;;;;;2.05;1.90;;;23.10;57.20;;;;;;4724639;29;20226;-86
2023/07/22 10:42:54;;;;;;;2.75;2.00;;;23.30;57.10;;;;;;4579809;30;20667;-87
2023/07/22 11:03:35;;;;;;;2.40;2.20;;;24.20;55.10;;;;;;4643812;29;20219;-81
2023/07/22 11:23:55;;;;;;;2.13;1.88;;;24.20;54.20;;;;;;4710565;29;20228;-85
2023/07/22 11:44:40;;;;;;;3.40;2.15;;;23.80;54.60;;;;;;4597147;30;20249;-85
2023/07/22 11:48:50;;;;;;;3.20;2.22;;;23.90;55.30;;;;;;4520423;30;20282;-84
2023/07/22 12:09:15;;;;;;;2.83;2.60;;;24.70;52.80;;;;;;4517095;30;20660;-83
2023/07/22 12:29:50;;;;;;;4.32;2.88;;;24.90;52.90;;;;;;4486670;30;20378;-87
2023/07/22 12:55:10;;;;;;;3.00;2.70;;;25.10;49.70;;;;;;4502515;30;20302;-85
2023/07/22 14:11:32;;;;;;;2.08;1.98;;;26.70;46.20;;;;;;4614028;30;20220;-88
2023/07/22 14:31:50;;;;;;;3.58;2.45;;;29.10;45.30;;;;;;4638741;30;20262;-86
2023/07/22 14:51:45;;;;;;;4.43;2.20;;;29.20;44.10;;;;;;4568630;30;20597;-88
2023/07/22 16:03:05;;;;;;;2.40;2.20;;;29.40;43.90;;;;;;4625551;29;20214;-85
2023/07/22 16:28:16;;;;;;;2.85;2.65;;;24.00;45.70;;;;;;4635491;29;20676;-85
2023/07/22 17:03:46;;;;;;;4.28;2.70;;;22.70;46.00;;;;;;4673985;29;20261;-87
2023/07/22 17:34:06;;;;;;;2.97;2.40;;;22.00;46.30;;;;;;4634484;30;20326;-83
2023/07/22 19:25:21;;;;;;;2.50;2.30;;;18.30;52.00;;;;;;4709507;29;20677;-85
2023/07/22 19:41:03;;;;;;;4.13;3.27;;;17.90;72.70;;;;;;4651526;30;20213;-87
2023/07/22 20:01:25;;;;;;;4.20;3.07;;;17.40;79.80;;;;;;4572377;30;20391;-88
2023/07/22 20:26:33;;;;;;;4.73;3.70;;;17.60;79.90;;;;;;4438444;31;20251;-87
2023/07/22 21:22:25;;;;;;;4.43;3.73;;;16.30;84.30;;;;;;4605359;30;20682;-86
2023/07/22 21:42:27;;;;;;;8.70;4.27;;;15.80;86.40;;;;;;4553275;30;20635;-87
2023/07/22 22:07:59;;;;;;;6.37;4.63;;;15.50;85.60;;;;;;4681575;29;20780;-87
2023/07/22 22:43:02;;;;;;;8.07;4.67;;;16.10;83.90;;;;;;4777685;29;20356;-86
2023/07/22 23:08:53;;;;;;;4.87;4.37;;;15.70;85.40;;;;;;4814490;29;20269;-86
2023/07/22 23:54:37;;;;;;;8.03;5.40;;;14.90;88.00;;;;;;4823941;28;20612;-87
